sensor_id;sensor_type;location;lat;lon;timestamp;P1;durP1;ratioP1;P2;durP2;ratioP2
73567;SDS011;61847;54.994;73.310;2022-10-16T00:01:26;18.13;;;6.18;;
73567;SDS011;61847;54.994;73.310;2022-10-16T00:03:55;16.30;;;5.88;;
73567;SDS011;61847;54.994;73.310;2022-10-16T00:06:23;16.02;;;5.75;;
73567;SDS011;61847;54.994;73.310;2022-10-16T00:08:50;16.55;;;5.25;;
73567;SDS011;61847;54.994;73.310;2022-10-16T00:11:19;19.60;;;5.60;;
73567;SDS011;61847;54.994;73.310;2022-10-16T00:13:51;20.83;;;6.07;;
73567;SDS011;61847;54.994;73.310;2022-10-16T00:16:20;20.23;;;6.05;;
73567;SDS011;61847;54.994;73.310;2022-10-16T00:18:46;17.50;;;5.80;;
73567;SDS011;61847;54.994;73.310;2022-10-16T00:21:15;18.73;;;6.05;;
73567;SDS011;61847;54.994;73.310;2022-10-16T00:23:43;19.98;;;6.32;;
73567;SDS011;61847;54.994;73.310;2022-10-16T00:26:11;16.80;;;5.82;;
73567;SDS011;61847;54.994;73.310;2022-10-16T00:28:47;18.80;;;6.47;;
73567;SDS011;61847;54.994;73.310;2022-10-16T00:31:14;14.43;;;5.38;;
73567;SDS011;61847;54.994;73.310;2022-10-16T00:33:41;12.93;;;5.65;;
73567;SDS011;61847;54.994;73.310;2022-10-16T00:36:09;21.25;;;9.10;;
73567;SDS011;61847;54.994;73.310;2022-10-16T00:38:37;16.52;;;6.22;;
73567;SDS011;61847;54.994;73.310;2022-10-16T00:41:04;18.55;;;7.38;;
73567;SDS011;61847;54.994;73.310;2022-10-16T00:43:38;23.35;;;7.45;;
73567;SDS011;61847;54.994;73.310;2022-10-16T00:46:29;27.10;;;7.82;;
73567;SDS011;61847;54.994;73.310;2022-10-16T00:49:05;27.73;;;8.95;;
73567;SDS011;61847;54.994;73.310;2022-10-16T00:51:38;28.38;;;8.57;;
73567;SDS011;61847;54.994;73.310;2022-10-16T00:54:16;21.30;;;7.68;;
73567;SDS011;61847;54.994;73.310;2022-10-16T00:56:46;23.85;;;8.85;;
73567;SDS011;61847;54.994;73.310;2022-10-16T00:59:18;31.20;;;8.40;;
73567;SDS011;61847;54.994;73.310;2022-10-16T01:01:48;21.40;;;7.72;;
73567;SDS011;61847;54.994;73.310;2022-10-16T01:04:14;20.50;;;8.13;;
73567;SDS011;61847;54.994;73.310;2022-10-16T01:06:51;23.92;;;8.40;;
73567;SDS011;61847;54.994;73.310;2022-10-16T01:12:21;27.35;;;6.70;;
73567;SDS011;61847;54.994;73.310;2022-10-16T01:14:58;29.30;;;6.18;;
73567;SDS011;61847;54.994;73.310;2022-10-16T01:20:10;19.30;;;6.97;;
73567;SDS011;61847;54.994;73.310;2022-10-16T01:22:48;27.02;;;6.07;;
73567;SDS011;61847;54.994;73.310;2022-10-16T01:28:16;20.33;;;6.22;;
73567;SDS011;61847;54.994;73.310;2022-10-16T01:30:47;17.55;;;5.90;;
73567;SDS011;61847;54.994;73.310;2022-10-16T01:33:20;19.20;;;5.97;;
73567;SDS011;61847;54.994;73.310;2022-10-16T01:35:53;17.70;;;6.18;;
73567;SDS011;61847;54.994;73.310;2022-10-16T01:38:36;19.52;;;4.97;;
73567;SDS011;61847;54.994;73.310;2022-10-16T01:41:31;14.48;;;5.13;;
73567;SDS011;61847;54.994;73.310;2022-10-16T01:44:17;16.60;;;5.63;;
73567;SDS011;61847;54.994;73.310;2022-10-16T01:46:48;14.88;;;5.00;;
73567;SDS011;61847;54.994;73.310;2022-10-16T01:49:16;10.23;;;4.57;;
73567;SDS011;61847;54.994;73.310;2022-10-16T01:51:44;16.15;;;4.80;;
73567;SDS011;61847;54.994;73.310;2022-10-16T01:54:12;12.50;;;4.72;;
73567;SDS011;61847;54.994;73.310;2022-10-16T01:56:41;20.67;;;6.10;;
73567;SDS011;61847;54.994;73.310;2022-10-16T01:59:16;17.73;;;4.47;;
73567;SDS011;61847;54.994;73.310;2022-10-16T02:01:45;10.77;;;4.03;;
73567;SDS011;61847;54.994;73.310;2022-10-16T02:04:26;10.98;;;4.15;;
73567;SDS011;61847;54.994;73.310;2022-10-16T02:06:57;10.00;;;4.53;;
73567;SDS011;61847;54.994;73.310;2022-10-16T02:09:34;14.48;;;4.18;;
73567;SDS011;61847;54.994;73.310;2022-10-16T02:12:03;12.82;;;4.40;;
73567;SDS011;61847;54.994;73.310;2022-10-16T02:14:41;13.82;;;4.75;;
73567;SDS011;61847;54.994;73.310;2022-10-16T02:17:15;16.95;;;5.30;;
73567;SDS011;61847;54.994;73.310;2022-10-16T02:19:43;16.88;;;5.03;;
73567;SDS011;61847;54.994;73.310;2022-10-16T02:22:15;15.88;;;5.28;;
73567;SDS011;61847;54.994;73.310;2022-10-16T02:24:59;15.90;;;5.75;;
73567;SDS011;61847;54.994;73.310;2022-10-16T02:27:53;20.58;;;4.65;;
73567;SDS011;61847;54.994;73.310;2022-10-16T02:30:43;17.60;;;4.43;;
73567;SDS011;61847;54.994;73.310;2022-10-16T02:33:16;10.95;;;4.82;;
73567;SDS011;61847;54.994;73.310;2022-10-16T02:35:44;18.77;;;5.40;;
73567;SDS011;61847;54.994;73.310;2022-10-16T02:38:24;14.75;;;5.00;;
73567;SDS011;61847;54.994;73.310;2022-10-16T02:40:51;17.55;;;5.25;;
73567;SDS011;61847;54.994;73.310;2022-10-16T02:43:18;18.15;;;5.55;;
73567;SDS011;61847;54.994;73.310;2022-10-16T02:45:45;14.02;;;5.55;;
73567;SDS011;61847;54.994;73.310;2022-10-16T02:48:11;20.30;;;6.38;;
73567;SDS011;61847;54.994;73.310;2022-10-16T02:50:37;18.20;;;6.72;;
73567;SDS011;61847;54.994;73.310;2022-10-16T02:53:03;23.05;;;7.03;;
73567;SDS011;61847;54.994;73.310;2022-10-16T02:55:30;30.70;;;8.13;;
73567;SDS011;61847;54.994;73.310;2022-10-16T02:57:56;19.20;;;7.00;;
73567;SDS011;61847;54.994;73.310;2022-10-16T03:00:22;36.97;;;8.77;;
73567;SDS011;61847;54.994;73.310;2022-10-16T03:02:48;26.45;;;8.60;;
73567;SDS011;61847;54.994;73.310;2022-10-16T03:05:15;25.50;;;8.63;;
73567;SDS011;61847;54.994;73.310;2022-10-16T03:07:41;30.17;;;8.70;;
73567;SDS011;61847;54.994;73.310;2022-10-16T03:10:08;20.88;;;8.68;;
73567;SDS011;61847;54.994;73.310;2022-10-16T03:12:44;29.17;;;9.20;;
73567;SDS011;61847;54.994;73.310;2022-10-16T03:15:11;27.00;;;9.60;;
73567;SDS011;61847;54.994;73.310;2022-10-16T03:17:37;24.85;;;8.43;;
73567;SDS011;61847;54.994;73.310;2022-10-16T03:20:03;23.35;;;9.20;;
73567;SDS011;61847;54.994;73.310;2022-10-16T03:22:30;26.33;;;8.88;;
73567;SDS011;61847;54.994;73.310;2022-10-16T03:25:01;35.42;;;9.35;;
73567;SDS011;61847;54.994;73.310;2022-10-16T03:27:27;25.50;;;10.45;;
73567;SDS011;61847;54.994;73.310;2022-10-16T03:29:53;26.17;;;9.98;;
73567;SDS011;61847;54.994;73.310;2022-10-16T03:32:20;35.60;;;10.77;;
73567;SDS011;61847;54.994;73.310;2022-10-16T03:34:47;25.98;;;10.35;;
73567;SDS011;61847;54.994;73.310;2022-10-16T03:37:23;27.48;;;10.90;;
73567;SDS011;61847;54.994;73.310;2022-10-16T03:39:50;26.55;;;10.52;;
73567;SDS011;61847;54.994;73.310;2022-10-16T03:42:16;33.83;;;12.30;;
73567;SDS011;61847;54.994;73.310;2022-10-16T03:44:42;35.67;;;12.73;;
73567;SDS011;61847;54.994;73.310;2022-10-16T03:47:08;32.90;;;11.88;;
73567;SDS011;61847;54.994;73.310;2022-10-16T03:49:34;33.08;;;11.23;;
73567;SDS011;61847;54.994;73.310;2022-10-16T03:52:01;34.03;;;11.95;;
73567;SDS011;61847;54.994;73.310;2022-10-16T03:54:27;30.75;;;10.98;;
73567;SDS011;61847;54.994;73.310;2022-10-16T03:57:04;38.30;;;11.73;;
73567;SDS011;61847;54.994;73.310;2022-10-16T03:59:30;25.17;;;10.32;;
73567;SDS011;61847;54.994;73.310;2022-10-16T04:01:56;42.40;;;10.77;;
73567;SDS011;61847;54.994;73.310;2022-10-16T04:04:22;33.63;;;9.90;;
73567;SDS011;61847;54.994;73.310;2022-10-16T04:06:59;27.55;;;8.95;;
73567;SDS011;61847;54.994;73.310;2022-10-16T04:09:26;59.88;;;8.57;;
73567;SDS011;61847;54.994;73.310;2022-10-16T04:11:52;36.28;;;8.88;;
73567;SDS011;61847;54.994;73.310;2022-10-16T04:14:18;32.88;;;8.90;;
73567;SDS011;61847;54.994;73.310;2022-10-16T04:16:45;25.00;;;8.48;;
73567;SDS011;61847;54.994;73.310;2022-10-16T04:19:21;34.22;;;9.15;;
73567;SDS011;61847;54.994;73.310;2022-10-16T04:21:47;31.10;;;9.25;;
73567;SDS011;61847;54.994;73.310;2022-10-16T04:24:13;30.40;;;8.60;;
73567;SDS011;61847;54.994;73.310;2022-10-16T04:26:49;40.55;;;8.77;;
73567;SDS011;61847;54.994;73.310;2022-10-16T04:29:15;36.78;;;9.20;;
73567;SDS011;61847;54.994;73.310;2022-10-16T04:31:41;35.45;;;9.35;;
73567;SDS011;61847;54.994;73.310;2022-10-16T04:34:07;33.45;;;9.52;;
73567;SDS011;61847;54.994;73.310;2022-10-16T04:36:34;40.80;;;9.60;;
73567;SDS011;61847;54.994;73.310;2022-10-16T04:39:00;34.83;;;9.63;;
73567;SDS011;61847;54.994;73.310;2022-10-16T04:41:26;31.33;;;9.70;;
73567;SDS011;61847;54.994;73.310;2022-10-16T04:43:52;36.95;;;9.20;;
73567;SDS011;61847;54.994;73.310;2022-10-16T04:46:19;35.85;;;10.02;;
73567;SDS011;61847;54.994;73.310;2022-10-16T04:48:46;34.47;;;9.90;;
73567;SDS011;61847;54.994;73.310;2022-10-16T04:51:12;36.80;;;11.02;;
73567;SDS011;61847;54.994;73.310;2022-10-16T04:53:38;37.58;;;10.75;;
73567;SDS011;61847;54.994;73.310;2022-10-16T04:56:04;40.42;;;11.35;;
73567;SDS011;61847;54.994;73.310;2022-10-16T04:58:31;51.55;;;11.65;;
73567;SDS011;61847;54.994;73.310;2022-10-16T05:00:57;40.75;;;12.55;;
73567;SDS011;61847;54.994;73.310;2022-10-16T05:03:23;37.45;;;11.10;;
73567;SDS011;61847;54.994;73.310;2022-10-16T05:05:50;42.03;;;12.07;;
73567;SDS011;61847;54.994;73.310;2022-10-16T05:08:16;30.65;;;11.30;;
73567;SDS011;61847;54.994;73.310;2022-10-16T05:10:43;38.05;;;11.35;;
73567;SDS011;61847;54.994;73.310;2022-10-16T05:13:10;38.63;;;10.75;;
73567;SDS011;61847;54.994;73.310;2022-10-16T05:15:36;46.67;;;11.15;;
73567;SDS011;61847;54.994;73.310;2022-10-16T05:18:03;28.40;;;10.43;;
73567;SDS011;61847;54.994;73.310;2022-10-16T05:20:29;38.65;;;11.35;;
73567;SDS011;61847;54.994;73.310;2022-10-16T05:23:08;32.35;;;11.40;;
73567;SDS011;61847;54.994;73.310;2022-10-16T05:25:36;41.05;;;11.82;;
73567;SDS011;61847;54.994;73.310;2022-10-16T05:28:08;38.22;;;10.68;;
73567;SDS011;61847;54.994;73.310;2022-10-16T05:30:34;31.77;;;8.75;;
73567;SDS011;61847;54.994;73.310;2022-10-16T05:33:03;35.22;;;8.55;;
73567;SDS011;61847;54.994;73.310;2022-10-16T05:35:29;22.40;;;8.90;;
73567;SDS011;61847;54.994;73.310;2022-10-16T05:37:56;24.38;;;8.80;;
73567;SDS011;61847;54.994;73.310;2022-10-16T05:40:32;33.60;;;10.05;;
73567;SDS011;61847;54.994;73.310;2022-10-16T05:43:09;35.35;;;9.63;;
73567;SDS011;61847;54.994;73.310;2022-10-16T05:45:53;35.67;;;8.93;;
73567;SDS011;61847;54.994;73.310;2022-10-16T05:48:23;38.83;;;11.05;;
73567;SDS011;61847;54.994;73.310;2022-10-16T05:51:00;34.90;;;9.77;;
73567;SDS011;61847;54.994;73.310;2022-10-16T05:53:29;40.45;;;9.95;;
73567;SDS011;61847;54.994;73.310;2022-10-16T05:55:57;29.98;;;9.77;;
73567;SDS011;61847;54.994;73.310;2022-10-16T05:58:34;35.33;;;10.27;;
73567;SDS011;61847;54.994;73.310;2022-10-16T06:01:03;27.80;;;9.43;;
73567;SDS011;61847;54.994;73.310;2022-10-16T06:03:33;30.55;;;9.45;;
73567;SDS011;61847;54.994;73.310;2022-10-16T06:06:18;33.70;;;8.90;;
73567;SDS011;61847;54.994;73.310;2022-10-16T06:08:46;30.25;;;8.13;;
73567;SDS011;61847;54.994;73.310;2022-10-16T06:11:17;30.42;;;8.50;;
73567;SDS011;61847;54.994;73.310;2022-10-16T06:13:50;20.73;;;5.40;;
73567;SDS011;61847;54.994;73.310;2022-10-16T06:16:18;12.70;;;3.40;;
73567;SDS011;61847;54.994;73.310;2022-10-16T06:18:45;7.90;;;3.33;;
73567;SDS011;61847;54.994;73.310;2022-10-16T06:21:22;10.90;;;3.60;;
73567;SDS011;61847;54.994;73.310;2022-10-16T06:23:53;10.68;;;3.50;;
73567;SDS011;61847;54.994;73.310;2022-10-16T06:26:22;10.27;;;4.18;;
73567;SDS011;61847;54.994;73.310;2022-10-16T06:29:00;10.95;;;3.95;;
73567;SDS011;61847;54.994;73.310;2022-10-16T06:31:27;8.55;;;3.78;;
73567;SDS011;61847;54.994;73.310;2022-10-16T06:33:56;12.60;;;3.85;;
73567;SDS011;61847;54.994;73.310;2022-10-16T06:36:23;13.70;;;3.70;;
73567;SDS011;61847;54.994;73.310;2022-10-16T06:38:50;17.38;;;3.70;;
73567;SDS011;61847;54.994;73.310;2022-10-16T06:41:18;9.88;;;3.78;;
73567;SDS011;61847;54.994;73.310;2022-10-16T06:43:46;13.50;;;4.40;;
73567;SDS011;61847;54.994;73.310;2022-10-16T06:46:14;6.50;;;3.13;;
73567;SDS011;61847;54.994;73.310;2022-10-16T06:48:42;15.65;;;3.15;;
73567;SDS011;61847;54.994;73.310;2022-10-16T06:51:10;14.23;;;3.35;;
73567;SDS011;61847;54.994;73.310;2022-10-16T06:53:42;7.15;;;3.47;;
73567;SDS011;61847;54.994;73.310;2022-10-16T06:56:22;10.63;;;3.20;;
73567;SDS011;61847;54.994;73.310;2022-10-16T06:58:52;13.07;;;3.60;;
73567;SDS011;61847;54.994;73.310;2022-10-16T07:01:23;12.90;;;3.60;;
73567;SDS011;61847;54.994;73.310;2022-10-16T07:03:50;8.93;;;3.42;;
73567;SDS011;61847;54.994;73.310;2022-10-16T07:06:23;12.77;;;3.53;;
73567;SDS011;61847;54.994;73.310;2022-10-16T07:08:51;16.88;;;3.70;;
73567;SDS011;61847;54.994;73.310;2022-10-16T07:11:21;10.18;;;3.17;;
73567;SDS011;61847;54.994;73.310;2022-10-16T07:13:49;18.77;;;3.72;;
73567;SDS011;61847;54.994;73.310;2022-10-16T07:16:17;17.17;;;3.72;;
73567;SDS011;61847;54.994;73.310;2022-10-16T07:18:45;10.48;;;3.45;;
73567;SDS011;61847;54.994;73.310;2022-10-16T07:23:50;9.15;;;3.05;;
73567;SDS011;61847;54.994;73.310;2022-10-16T07:26:20;7.57;;;3.20;;
73567;SDS011;61847;54.994;73.310;2022-10-16T07:28:48;9.63;;;3.30;;
73567;SDS011;61847;54.994;73.310;2022-10-16T07:31:15;15.90;;;3.75;;
73567;SDS011;61847;54.994;73.310;2022-10-16T07:33:44;13.13;;;3.47;;
73567;SDS011;61847;54.994;73.310;2022-10-16T07:36:11;6.88;;;2.83;;
73567;SDS011;61847;54.994;73.310;2022-10-16T07:38:38;11.57;;;3.67;;
73567;SDS011;61847;54.994;73.310;2022-10-16T07:41:06;9.43;;;3.45;;
73567;SDS011;61847;54.994;73.310;2022-10-16T07:43:33;14.85;;;3.97;;
73567;SDS011;61847;54.994;73.310;2022-10-16T07:45:59;13.13;;;3.38;;
73567;SDS011;61847;54.994;73.310;2022-10-16T07:48:27;12.35;;;3.50;;
73567;SDS011;61847;54.994;73.310;2022-10-16T07:51:00;15.30;;;4.28;;
73567;SDS011;61847;54.994;73.310;2022-10-16T07:53:28;14.23;;;3.78;;
73567;SDS011;61847;54.994;73.310;2022-10-16T07:56:01;12.07;;;4.15;;
73567;SDS011;61847;54.994;73.310;2022-10-16T07:58:29;22.02;;;4.80;;
73567;SDS011;61847;54.994;73.310;2022-10-16T08:01:03;30.30;;;4.35;;
73567;SDS011;61847;54.994;73.310;2022-10-16T08:03:31;23.50;;;4.63;;
73567;SDS011;61847;54.994;73.310;2022-10-16T08:05:57;14.25;;;3.50;;
73567;SDS011;61847;54.994;73.310;2022-10-16T08:08:24;10.50;;;4.10;;
73567;SDS011;61847;54.994;73.310;2022-10-16T08:10:51;17.70;;;4.22;;
73567;SDS011;61847;54.994;73.310;2022-10-16T08:13:17;11.57;;;4.10;;
73567;SDS011;61847;54.994;73.310;2022-10-16T08:15:44;16.73;;;4.40;;
73567;SDS011;61847;54.994;73.310;2022-10-16T08:18:12;19.15;;;4.30;;
73567;SDS011;61847;54.994;73.310;2022-10-16T08:20:39;17.50;;;3.75;;
73567;SDS011;61847;54.994;73.310;2022-10-16T08:23:06;13.30;;;4.30;;
73567;SDS011;61847;54.994;73.310;2022-10-16T08:25:34;13.60;;;3.70;;
73567;SDS011;61847;54.994;73.310;2022-10-16T08:28:06;15.20;;;5.40;;
73567;SDS011;61847;54.994;73.310;2022-10-16T08:30:33;14.93;;;5.50;;
73567;SDS011;61847;54.994;73.310;2022-10-16T08:33:01;11.82;;;4.10;;
73567;SDS011;61847;54.994;73.310;2022-10-16T08:35:27;12.15;;;3.22;;
73567;SDS011;61847;54.994;73.310;2022-10-16T08:37:54;10.35;;;3.42;;
73567;SDS011;61847;54.994;73.310;2022-10-16T08:40:29;11.60;;;3.42;;
73567;SDS011;61847;54.994;73.310;2022-10-16T08:45:51;9.35;;;4.15;;
73567;SDS011;61847;54.994;73.310;2022-10-16T08:51:01;10.27;;;4.38;;
73567;SDS011;61847;54.994;73.310;2022-10-16T08:56:10;11.65;;;4.85;;
73567;SDS011;61847;54.994;73.310;2022-10-16T08:58:36;14.75;;;5.22;;
73567;SDS011;61847;54.994;73.310;2022-10-16T09:01:11;18.15;;;5.75;;
73567;SDS011;61847;54.994;73.310;2022-10-16T09:08:41;15.10;;;6.28;;
73567;SDS011;61847;54.994;73.310;2022-10-16T09:11:26;20.80;;;6.80;;
73567;SDS011;61847;54.994;73.310;2022-10-16T09:16:52;15.55;;;6.65;;
73567;SDS011;61847;54.994;73.310;2022-10-16T09:19:31;18.33;;;6.03;;
73567;SDS011;61847;54.994;73.310;2022-10-16T09:22:10;15.35;;;5.60;;
73567;SDS011;61847;54.994;73.310;2022-10-16T09:24:40;14.38;;;5.38;;
73567;SDS011;61847;54.994;73.310;2022-10-16T09:27:10;19.55;;;4.97;;
73567;SDS011;61847;54.994;73.310;2022-10-16T09:29:39;10.30;;;3.83;;
73567;SDS011;61847;54.994;73.310;2022-10-16T09:32:19;9.52;;;4.00;;
73567;SDS011;61847;54.994;73.310;2022-10-16T09:34:52;10.52;;;4.20;;
73567;SDS011;61847;54.994;73.310;2022-10-16T09:37:22;9.32;;;3.55;;
73567;SDS011;61847;54.994;73.310;2022-10-16T09:39:53;6.15;;;3.13;;
73567;SDS011;61847;54.994;73.310;2022-10-16T09:42:54;7.88;;;3.33;;
73567;SDS011;61847;54.994;73.310;2022-10-16T09:45:22;5.72;;;2.88;;
73567;SDS011;61847;54.994;73.310;2022-10-16T09:47:49;12.43;;;2.80;;
73567;SDS011;61847;54.994;73.310;2022-10-16T09:50:20;10.75;;;3.42;;
73567;SDS011;61847;54.994;73.310;2022-10-16T09:52:50;10.45;;;3.38;;
73567;SDS011;61847;54.994;73.310;2022-10-16T09:55:17;9.70;;;3.70;;
73567;SDS011;61847;54.994;73.310;2022-10-16T09:57:50;7.80;;;3.17;;
73567;SDS011;61847;54.994;73.310;2022-10-16T10:00:17;6.63;;;3.05;;
73567;SDS011;61847;54.994;73.310;2022-10-16T10:02:44;11.45;;;3.28;;
73567;SDS011;61847;54.994;73.310;2022-10-16T10:05:21;9.02;;;3.22;;
73567;SDS011;61847;54.994;73.310;2022-10-16T10:07:54;13.73;;;3.30;;
73567;SDS011;61847;54.994;73.310;2022-10-16T10:10:24;13.30;;;3.90;;
73567;SDS011;61847;54.994;73.310;2022-10-16T10:12:53;8.85;;;3.83;;
73567;SDS011;61847;54.994;73.310;2022-10-16T10:15:21;7.82;;;3.60;;
73567;SDS011;61847;54.994;73.310;2022-10-16T10:17:50;15.93;;;3.95;;
73567;SDS011;61847;54.994;73.310;2022-10-16T10:20:26;20.02;;;10.30;;
73567;SDS011;61847;54.994;73.310;2022-10-16T10:23:22;6.93;;;3.20;;
73567;SDS011;61847;54.994;73.310;2022-10-16T10:40:02;10.90;;;5.13;;
73567;SDS011;61847;54.994;73.310;2022-10-16T10:42:39;12.68;;;4.70;;
73567;SDS011;61847;54.994;73.310;2022-10-16T10:48:27;14.07;;;5.80;;
73567;SDS011;61847;54.994;73.310;2022-10-16T10:51:04;11.70;;;4.75;;
73567;SDS011;61847;54.994;73.310;2022-10-16T10:56:09;23.73;;;4.90;;
73567;SDS011;61847;54.994;73.310;2022-10-16T11:04:23;6.18;;;3.13;;
73567;SDS011;61847;54.994;73.310;2022-10-16T11:07:00;19.17;;;3.58;;
73567;SDS011;61847;54.994;73.310;2022-10-16T11:09:39;10.55;;;3.47;;
73567;SDS011;61847;54.994;73.310;2022-10-16T11:17:36;41.85;;;7.03;;
73567;SDS011;61847;54.994;73.310;2022-10-16T11:20:16;56.80;;;11.88;;
73567;SDS011;61847;54.994;73.310;2022-10-16T11:22:51;37.13;;;9.57;;
73567;SDS011;61847;54.994;73.310;2022-10-16T11:25:29;41.67;;;10.40;;
73567;SDS011;61847;54.994;73.310;2022-10-16T11:30:47;33.92;;;7.63;;
73567;SDS011;61847;54.994;73.310;2022-10-16T11:35:57;25.50;;;6.45;;
73567;SDS011;61847;54.994;73.310;2022-10-16T11:44:06;50.13;;;14.30;;
73567;SDS011;61847;54.994;73.310;2022-10-16T11:49:31;27.25;;;12.00;;
73567;SDS011;61847;54.994;73.310;2022-10-16T11:54:51;14.70;;;3.92;;
73567;SDS011;61847;54.994;73.310;2022-10-16T11:57:46;5.65;;;2.63;;
73567;SDS011;61847;54.994;73.310;2022-10-16T12:00:21;12.32;;;3.45;;
73567;SDS011;61847;54.994;73.310;2022-10-16T12:05:50;14.13;;;5.63;;
73567;SDS011;61847;54.994;73.310;2022-10-16T12:08:18;16.88;;;5.47;;
73567;SDS011;61847;54.994;73.310;2022-10-16T12:10:46;9.60;;;4.68;;
73567;SDS011;61847;54.994;73.310;2022-10-16T12:13:33;14.38;;;5.22;;
73567;SDS011;61847;54.994;73.310;2022-10-16T12:18:39;11.68;;;5.97;;
73567;SDS011;61847;54.994;73.310;2022-10-16T12:21:21;19.45;;;6.85;;
73567;SDS011;61847;54.994;73.310;2022-10-16T12:24:02;23.50;;;8.95;;
73567;SDS011;61847;54.994;73.310;2022-10-16T12:26:36;41.28;;;15.38;;
73567;SDS011;61847;54.994;73.310;2022-10-16T12:32:00;29.13;;;10.98;;
73567;SDS011;61847;54.994;73.310;2022-10-16T12:34:28;30.40;;;13.20;;
73567;SDS011;61847;54.994;73.310;2022-10-16T12:37:09;49.13;;;14.85;;
73567;SDS011;61847;54.994;73.310;2022-10-16T12:39:47;40.80;;;14.52;;
73567;SDS011;61847;54.994;73.310;2022-10-16T12:44:53;35.13;;;14.95;;
73567;SDS011;61847;54.994;73.310;2022-10-16T12:49:55;33.38;;;14.80;;
73567;SDS011;61847;54.994;73.310;2022-10-16T12:54:59;32.05;;;14.15;;
73567;SDS011;61847;54.994;73.310;2022-10-16T12:59:58;37.25;;;14.32;;
73567;SDS011;61847;54.994;73.310;2022-10-16T13:05:20;33.25;;;13.90;;
73567;SDS011;61847;54.994;73.310;2022-10-16T13:17:33;46.28;;;15.65;;
73567;SDS011;61847;54.994;73.310;2022-10-16T13:20:33;53.70;;;15.85;;
73567;SDS011;61847;54.994;73.310;2022-10-16T13:23:26;38.42;;;14.50;;
73567;SDS011;61847;54.994;73.310;2022-10-16T13:26:17;44.55;;;13.93;;
73567;SDS011;61847;54.994;73.310;2022-10-16T13:28:53;50.60;;;19.85;;
73567;SDS011;61847;54.994;73.310;2022-10-16T13:31:25;55.90;;;20.70;;
73567;SDS011;61847;54.994;73.310;2022-10-16T13:33:52;54.60;;;23.58;;
73567;SDS011;61847;54.994;73.310;2022-10-16T13:36:22;78.40;;;29.65;;
73567;SDS011;61847;54.994;73.310;2022-10-16T13:39:00;68.57;;;25.63;;
73567;SDS011;61847;54.994;73.310;2022-10-16T13:41:27;55.55;;;19.88;;
73567;SDS011;61847;54.994;73.310;2022-10-16T13:43:53;44.53;;;18.15;;
73567;SDS011;61847;54.994;73.310;2022-10-16T13:46:22;35.03;;;14.40;;
73567;SDS011;61847;54.994;73.310;2022-10-16T13:48:57;35.45;;;13.70;;
73567;SDS011;61847;54.994;73.310;2022-10-16T13:51:23;34.20;;;12.52;;
73567;SDS011;61847;54.994;73.310;2022-10-16T13:53:50;35.50;;;12.73;;
73567;SDS011;61847;54.994;73.310;2022-10-16T13:56:18;28.25;;;12.30;;
73567;SDS011;61847;54.994;73.310;2022-10-16T13:58:57;35.33;;;12.13;;
73567;SDS011;61847;54.994;73.310;2022-10-16T14:01:28;27.75;;;11.65;;
73567;SDS011;61847;54.994;73.310;2022-10-16T14:04:06;28.33;;;11.75;;
73567;SDS011;61847;54.994;73.310;2022-10-16T14:06:35;31.80;;;10.53;;
73567;SDS011;61847;54.994;73.310;2022-10-16T14:09:12;25.50;;;9.65;;
73567;SDS011;61847;54.994;73.310;2022-10-16T14:11:53;22.10;;;8.25;;
73567;SDS011;61847;54.994;73.310;2022-10-16T14:14:20;22.90;;;8.55;;
73567;SDS011;61847;54.994;73.310;2022-10-16T14:16:47;24.13;;;9.38;;
73567;SDS011;61847;54.994;73.310;2022-10-16T14:21:46;23.70;;;8.93;;
73567;SDS011;61847;54.994;73.310;2022-10-16T14:24:13;26.60;;;8.68;;
73567;SDS011;61847;54.994;73.310;2022-10-16T14:26:50;28.38;;;9.18;;
73567;SDS011;61847;54.994;73.310;2022-10-16T14:29:20;32.17;;;9.30;;
73567;SDS011;61847;54.994;73.310;2022-10-16T14:34:28;28.10;;;9.20;;
73567;SDS011;61847;54.994;73.310;2022-10-16T14:36:59;17.20;;;7.80;;
73567;SDS011;61847;54.994;73.310;2022-10-16T14:39:32;19.65;;;8.07;;
73567;SDS011;61847;54.994;73.310;2022-10-16T14:42:04;21.23;;;8.55;;
73567;SDS011;61847;54.994;73.310;2022-10-16T14:44:33;24.73;;;9.27;;
73567;SDS011;61847;54.994;73.310;2022-10-16T14:47:13;33.20;;;8.80;;
73567;SDS011;61847;54.994;73.310;2022-10-16T14:49:42;23.27;;;8.70;;
73567;SDS011;61847;54.994;73.310;2022-10-16T14:52:10;24.05;;;8.27;;
73567;SDS011;61847;54.994;73.310;2022-10-16T14:54:37;27.90;;;9.75;;
73567;SDS011;61847;54.994;73.310;2022-10-16T14:57:23;24.27;;;9.23;;
73567;SDS011;61847;54.994;73.310;2022-10-16T15:00:04;21.13;;;8.40;;
73567;SDS011;61847;54.994;73.310;2022-10-16T15:02:52;26.63;;;8.68;;
73567;SDS011;61847;54.994;73.310;2022-10-16T15:05:29;27.67;;;9.57;;
73567;SDS011;61847;54.994;73.310;2022-10-16T15:07:57;33.08;;;10.38;;
73567;SDS011;61847;54.994;73.310;2022-10-16T15:10:25;23.83;;;10.73;;
73567;SDS011;61847;54.994;73.310;2022-10-16T15:12:54;27.40;;;11.70;;
73567;SDS011;61847;54.994;73.310;2022-10-16T15:17:54;33.08;;;14.27;;
73567;SDS011;61847;54.994;73.310;2022-10-16T15:20:26;45.20;;;15.90;;
73567;SDS011;61847;54.994;73.310;2022-10-16T15:22:54;43.80;;;16.38;;
73567;SDS011;61847;54.994;73.310;2022-10-16T15:25:37;52.50;;;18.05;;
73567;SDS011;61847;54.994;73.310;2022-10-16T15:28:20;50.60;;;18.33;;
73567;SDS011;61847;54.994;73.310;2022-10-16T15:30:51;53.13;;;19.90;;
73567;SDS011;61847;54.994;73.310;2022-10-16T15:33:24;48.13;;;20.63;;
73567;SDS011;61847;54.994;73.310;2022-10-16T15:35:54;52.33;;;20.70;;
73567;SDS011;61847;54.994;73.310;2022-10-16T15:38:21;53.38;;;20.60;;
73567;SDS011;61847;54.994;73.310;2022-10-16T15:40:48;46.92;;;20.10;;
73567;SDS011;61847;54.994;73.310;2022-10-16T15:43:21;47.90;;;20.63;;
73567;SDS011;61847;54.994;73.310;2022-10-16T15:46:04;45.53;;;18.92;;
73567;SDS011;61847;54.994;73.310;2022-10-16T15:48:32;46.90;;;18.98;;
73567;SDS011;61847;54.994;73.310;2022-10-16T15:51:04;41.50;;;18.67;;
73567;SDS011;61847;54.994;73.310;2022-10-16T15:53:32;39.97;;;17.75;;
73567;SDS011;61847;54.994;73.310;2022-10-16T15:56:05;37.97;;;17.02;;
73567;SDS011;61847;54.994;73.310;2022-10-16T15:58:33;40.85;;;16.30;;
73567;SDS011;61847;54.994;73.310;2022-10-16T16:01:00;41.05;;;18.13;;
73567;SDS011;61847;54.994;73.310;2022-10-16T16:03:28;54.03;;;20.15;;
73567;SDS011;61847;54.994;73.310;2022-10-16T16:05:55;52.92;;;20.90;;
73567;SDS011;61847;54.994;73.310;2022-10-16T16:08:21;43.03;;;18.08;;
73567;SDS011;61847;54.994;73.310;2022-10-16T16:10:59;48.38;;;18.42;;
73567;SDS011;61847;54.994;73.310;2022-10-16T16:13:27;72.00;;;19.83;;
73567;SDS011;61847;54.994;73.310;2022-10-16T16:15:54;69.13;;;19.27;;
73567;SDS011;61847;54.994;73.310;2022-10-16T16:18:25;59.63;;;19.33;;
73567;SDS011;61847;54.994;73.310;2022-10-16T16:20:52;44.20;;;17.83;;
73567;SDS011;61847;54.994;73.310;2022-10-16T16:23:18;36.80;;;16.13;;
73567;SDS011;61847;54.994;73.310;2022-10-16T16:26:06;43.97;;;17.00;;
73567;SDS011;61847;54.994;73.310;2022-10-16T16:28:40;40.38;;;17.20;;
73567;SDS011;61847;54.994;73.310;2022-10-16T16:31:08;39.97;;;17.00;;
73567;SDS011;61847;54.994;73.310;2022-10-16T16:33:34;35.97;;;15.15;;
73567;SDS011;61847;54.994;73.310;2022-10-16T16:36:05;45.15;;;15.35;;